sensor_id;sensor_type;location;lat;lon;timestamp;temperature;humidity
35559;DHT22;21661;50.794;-1.066;2023-03-04T00:01:49;6.90;99.90
35559;DHT22;21661;50.794;-1.066;2023-03-04T00:04:15;6.90;99.90
35559;DHT22;21661;50.794;-1.066;2023-03-04T00:06:41;6.90;99.90
35559;DHT22;21661;50.794;-1.066;2023-03-04T00:09:07;6.90;99.90
35559;DHT22;21661;50.794;-1.066;2023-03-04T00:11:32;6.90;99.90
35559;DHT22;21661;50.794;-1.066;2023-03-04T00:13:58;6.90;99.90
35559;DHT22;21661;50.794;-1.066;2023-03-04T00:16:24;6.90;99.90
35559;DHT22;21661;50.794;-1.066;2023-03-04T00:18:56;6.90;99.90
35559;DHT22;21661;50.794;-1.066;2023-03-04T00:21:22;6.90;99.90
35559;DHT22;21661;50.794;-1.066;2023-03-04T00:23:48;6.90;99.90
35559;DHT22;21661;50.794;-1.066;2023-03-04T00:26:14;7.00;99.90
35559;DHT22;21661;50.794;-1.066;2023-03-04T00:28:40;7.00;99.90
35559;DHT22;21661;50.794;-1.066;2023-03-04T00:31:06;7.00;99.90
35559;DHT22;21661;50.794;-1.066;2023-03-04T00:33:33;7.00;99.90
35559;DHT22;21661;50.794;-1.066;2023-03-04T00:35:59;7.00;99.90
35559;DHT22;21661;50.794;-1.066;2023-03-04T00:38:25;7.00;99.90
35559;DHT22;21661;50.794;-1.066;2023-03-04T00:40:51;7.00;99.90
35559;DHT22;21661;50.794;-1.066;2023-03-04T00:43:17;7.00;99.90
35559;DHT22;21661;50.794;-1.066;2023-03-04T00:45:42;7.00;99.90
35559;DHT22;21661;50.794;-1.066;2023-03-04T00:48:08;7.00;99.90
35559;DHT22;21661;50.794;-1.066;2023-03-04T00:50:34;6.90;99.90
35559;DHT22;21661;50.794;-1.066;2023-03-04T00:52:59;6.90;99.90
35559;DHT22;21661;50.794;-1.066;2023-03-04T00:55:26;7.00;99.90
35559;DHT22;21661;50.794;-1.066;2023-03-04T00:57:52;7.00;99.90
35559;DHT22;21661;50.794;-1.066;2023-03-04T01:00:18;7.00;99.90
35559;DHT22;21661;50.794;-1.066;2023-03-04T01:02:43;7.00;99.90
35559;DHT22;21661;50.794;-1.066;2023-03-04T01:05:09;7.00;99.90
35559;DHT22;21661;50.794;-1.066;2023-03-04T01:07:35;7.00;99.90
35559;DHT22;21661;50.794;-1.066;2023-03-04T01:10:01;7.00;99.90
35559;DHT22;21661;50.794;-1.066;2023-03-04T01:12:27;7.00;99.90
35559;DHT22;21661;50.794;-1.066;2023-03-04T01:14:53;7.00;99.90
35559;DHT22;21661;50.794;-1.066;2023-03-04T01:17:19;7.00;99.90
35559;DHT22;21661;50.794;-1.066;2023-03-04T01:19:44;7.00;99.90
35559;DHT22;21661;50.794;-1.066;2023-03-04T01:22:10;7.00;99.90
35559;DHT22;21661;50.794;-1.066;2023-03-04T01:24:38;7.00;99.90
35559;DHT22;21661;50.794;-1.066;2023-03-04T01:27:03;7.00;99.90
35559;DHT22;21661;50.794;-1.066;2023-03-04T01:29:29;7.00;99.90
35559;DHT22;21661;50.794;-1.066;2023-03-04T01:31:55;6.90;99.90
35559;DHT22;21661;50.794;-1.066;2023-03-04T01:34:20;6.90;99.90
35559;DHT22;21661;50.794;-1.066;2023-03-04T01:36:46;6.90;99.90
35559;DHT22;21661;50.794;-1.066;2023-03-04T01:39:11;6.90;99.90
35559;DHT22;21661;50.794;-1.066;2023-03-04T01:41:37;6.90;99.90
35559;DHT22;21661;50.794;-1.066;2023-03-04T01:44:03;6.90;99.90
35559;DHT22;21661;50.794;-1.066;2023-03-04T01:46:29;6.90;99.90
35559;DHT22;21661;50.794;-1.066;2023-03-04T01:48:56;6.90;99.90
35559;DHT22;21661;50.794;-1.066;2023-03-04T01:51:22;7.00;99.90
35559;DHT22;21661;50.794;-1.066;2023-03-04T01:53:49;7.00;99.90
35559;DHT22;21661;50.794;-1.066;2023-03-04T01:56:35;7.00;99.90
35559;DHT22;21661;50.794;-1.066;2023-03-04T01:59:17;7.00;99.90
35559;DHT22;21661;50.794;-1.066;2023-03-04T02:01:45;6.90;99.90
35559;DHT22;21661;50.794;-1.066;2023-03-04T02:04:13;7.00;99.90
35559;DHT22;21661;50.794;-1.066;2023-03-04T02:06:40;7.00;99.90
35559;DHT22;21661;50.794;-1.066;2023-03-04T02:09:06;6.90;99.90
35559;DHT22;21661;50.794;-1.066;2023-03-04T02:11:33;6.90;99.90
35559;DHT22;21661;50.794;-1.066;2023-03-04T02:14:00;6.90;99.90
35559;DHT22;21661;50.794;-1.066;2023-03-04T02:16:25;7.00;99.90
35559;DHT22;21661;50.794;-1.066;2023-03-04T02:18:51;6.90;99.90
35559;DHT22;21661;50.794;-1.066;2023-03-04T02:21:28;6.90;99.90
35559;DHT22;21661;50.794;-1.066;2023-03-04T02:23:57;6.90;99.90
35559;DHT22;21661;50.794;-1.066;2023-03-04T02:26:26;6.90;99.90
35559;DHT22;21661;50.794;-1.066;2023-03-04T02:28:54;7.00;99.90
35559;DHT22;21661;50.794;-1.066;2023-03-04T02:31:37;6.90;99.90
35559;DHT22;21661;50.794;-1.066;2023-03-04T02:34:10;6.90;99.90
35559;DHT22;21661;50.794;-1.066;2023-03-04T02:36:37;6.80;99.90
35559;DHT22;21661;50.794;-1.066;2023-03-04T02:39:09;6.80;99.90
35559;DHT22;21661;50.794;-1.066;2023-03-04T02:41:35;6.80;99.90
35559;DHT22;21661;50.794;-1.066;2023-03-04T02:44:01;6.80;99.90
35559;DHT22;21661;50.794;-1.066;2023-03-04T02:46:26;6.80;99.90
35559;DHT22;21661;50.794;-1.066;2023-03-04T02:48:52;6.70;99.90
35559;DHT22;21661;50.794;-1.066;2023-03-04T02:51:18;6.80;99.90
35559;DHT22;21661;50.794;-1.066;2023-03-04T02:53:44;6.70;99.90
35559;DHT22;21661;50.794;-1.066;2023-03-04T02:56:09;6.80;99.90
35559;DHT22;21661;50.794;-1.066;2023-03-04T02:58:35;6.70;99.90
35559;DHT22;21661;50.794;-1.066;2023-03-04T03:01:06;6.70;99.90
35559;DHT22;21661;50.794;-1.066;2023-03-04T03:03:32;6.70;99.90
35559;DHT22;21661;50.794;-1.066;2023-03-04T03:05:58;6.70;99.90
35559;DHT22;21661;50.794;-1.066;2023-03-04T03:08:23;6.70;99.90
35559;DHT22;21661;50.794;-1.066;2023-03-04T03:10:49;6.70;99.90
35559;DHT22;21661;50.794;-1.066;2023-03-04T03:13:14;6.60;99.90
35559;DHT22;21661;50.794;-1.066;2023-03-04T03:15:40;6.70;99.90
35559;DHT22;21661;50.794;-1.066;2023-03-04T03:18:08;6.70;99.90
35559;DHT22;21661;50.794;-1.066;2023-03-04T03:20:35;6.70;99.90
35559;DHT22;21661;50.794;-1.066;2023-03-04T03:23:01;6.70;99.90
35559;DHT22;21661;50.794;-1.066;2023-03-04T03:25:26;6.70;99.90
35559;DHT22;21661;50.794;-1.066;2023-03-04T03:27:52;6.70;99.90
35559;DHT22;21661;50.794;-1.066;2023-03-04T03:30:18;6.70;99.90
35559;DHT22;21661;50.794;-1.066;2023-03-04T03:32:43;6.70;99.90
35559;DHT22;21661;50.794;-1.066;2023-03-04T03:35:09;6.70;99.90
35559;DHT22;21661;50.794;-1.066;2023-03-04T03:37:35;6.60;99.90
35559;DHT22;21661;50.794;-1.066;2023-03-04T03:40:00;6.60;99.90
35559;DHT22;21661;50.794;-1.066;2023-03-04T03:42:26;6.60;99.90
35559;DHT22;21661;50.794;-1.066;2023-03-04T03:44:51;6.60;99.90
35559;DHT22;21661;50.794;-1.066;2023-03-04T03:47:17;6.60;99.90
35559;DHT22;21661;50.794;-1.066;2023-03-04T03:49:43;6.50;99.90
35559;DHT22;21661;50.794;-1.066;2023-03-04T03:52:08;6.50;99.90
35559;DHT22;21661;50.794;-1.066;2023-03-04T03:54:34;6.50;99.90
35559;DHT22;21661;50.794;-1.066;2023-03-04T03:57:00;6.60;99.90
35559;DHT22;21661;50.794;-1.066;2023-03-04T03:59:26;6.60;99.90
35559;DHT22;21661;50.794;-1.066;2023-03-04T04:01:52;6.60;99.90
35559;DHT22;21661;50.794;-1.066;2023-03-04T04:04:17;6.60;99.90
35559;DHT22;21661;50.794;-1.066;2023-03-04T04:06:43;6.50;99.90
35559;DHT22;21661;50.794;-1.066;2023-03-04T04:09:08;6.50;99.90
35559;DHT22;21661;50.794;-1.066;2023-03-04T04:11:34;6.50;99.90
35559;DHT22;21661;50.794;-1.066;2023-03-04T04:14:00;6.50;99.90
35559;DHT22;21661;50.794;-1.066;2023-03-04T04:16:25;6.60;99.90
35559;DHT22;21661;50.794;-1.066;2023-03-04T04:18:51;6.50;99.90
35559;DHT22;21661;50.794;-1.066;2023-03-04T04:21:17;6.50;99.90
35559;DHT22;21661;50.794;-1.066;2023-03-04T04:23:42;6.50;99.90
35559;DHT22;21661;50.794;-1.066;2023-03-04T04:26:08;6.60;99.90
35559;DHT22;21661;50.794;-1.066;2023-03-04T04:28:33;6.50;99.90
35559;DHT22;21661;50.794;-1.066;2023-03-04T04:30:59;6.50;99.90
35559;DHT22;21661;50.794;-1.066;2023-03-04T04:33:25;6.50;99.90
35559;DHT22;21661;50.794;-1.066;2023-03-04T04:35:50;6.40;99.90
35559;DHT22;21661;50.794;-1.066;2023-03-04T04:38:16;6.40;99.90
35559;DHT22;21661;50.794;-1.066;2023-03-04T04:40:42;6.50;99.90
35559;DHT22;21661;50.794;-1.066;2023-03-04T04:43:08;6.50;99.90
35559;DHT22;21661;50.794;-1.066;2023-03-04T04:45:34;6.50;99.90
35559;DHT22;21661;50.794;-1.066;2023-03-04T04:47:59;6.50;99.90
35559;DHT22;21661;50.794;-1.066;2023-03-04T04:50:25;6.50;99.90
35559;DHT22;21661;50.794;-1.066;2023-03-04T04:52:51;6.50;99.90
35559;DHT22;21661;50.794;-1.066;2023-03-04T04:55:17;6.50;99.90
35559;DHT22;21661;50.794;-1.066;2023-03-04T04:57:42;6.40;99.90
35559;DHT22;21661;50.794;-1.066;2023-03-04T05:00:09;6.50;99.90
35559;DHT22;21661;50.794;-1.066;2023-03-04T05:02:35;6.40;99.90
35559;DHT22;21661;50.794;-1.066;2023-03-04T05:05:05;6.50;99.90
35559;DHT22;21661;50.794;-1.066;2023-03-04T05:07:31;6.50;99.90
35559;DHT22;21661;50.794;-1.066;2023-03-04T05:09:57;6.40;99.90
35559;DHT22;21661;50.794;-1.066;2023-03-04T05:12:22;6.40;99.90
35559;DHT22;21661;50.794;-1.066;2023-03-04T05:14:48;6.40;99.90
35559;DHT22;21661;50.794;-1.066;2023-03-04T05:17:13;6.40;99.90
35559;DHT22;21661;50.794;-1.066;2023-03-04T05:19:39;6.50;99.90
35559;DHT22;21661;50.794;-1.066;2023-03-04T05:22:04;6.50;99.90
35559;DHT22;21661;50.794;-1.066;2023-03-04T05:24:30;6.50;99.90
35559;DHT22;21661;50.794;-1.066;2023-03-04T05:26:56;6.40;99.90
35559;DHT22;21661;50.794;-1.066;2023-03-04T05:29:21;6.40;99.90
35559;DHT22;21661;50.794;-1.066;2023-03-04T05:31:47;6.40;99.90
35559;DHT22;21661;50.794;-1.066;2023-03-04T05:34:13;6.50;99.90
35559;DHT22;21661;50.794;-1.066;2023-03-04T05:36:38;6.50;99.90
35559;DHT22;21661;50.794;-1.066;2023-03-04T05:39:04;6.50;99.90
35559;DHT22;21661;50.794;-1.066;2023-03-04T05:41:29;6.40;99.90
35559;DHT22;21661;50.794;-1.066;2023-03-04T05:43:55;6.50;99.90
35559;DHT22;21661;50.794;-1.066;2023-03-04T05:46:21;6.30;99.90
35559;DHT22;21661;50.794;-1.066;2023-03-04T05:48:51;6.30;99.90
35559;DHT22;21661;50.794;-1.066;2023-03-04T05:51:17;6.30;99.90
35559;DHT22;21661;50.794;-1.066;2023-03-04T05:53:43;6.30;99.90
35559;DHT22;21661;50.794;-1.066;2023-03-04T05:56:11;6.30;99.90
35559;DHT22;21661;50.794;-1.066;2023-03-04T05:58:40;6.30;99.90
35559;DHT22;21661;50.794;-1.066;2023-03-04T06:01:05;6.30;99.90
35559;DHT22;21661;50.794;-1.066;2023-03-04T06:03:31;6.30;99.90
35559;DHT22;21661;50.794;-1.066;2023-03-04T06:05:58;6.30;99.90
35559;DHT22;21661;50.794;-1.066;2023-03-04T06:08:24;6.30;99.90
35559;DHT22;21661;50.794;-1.066;2023-03-04T06:10:55;6.40;99.90
35559;DHT22;21661;50.794;-1.066;2023-03-04T06:13:21;6.40;99.90
35559;DHT22;21661;50.794;-1.066;2023-03-04T06:15:46;6.40;99.90
35559;DHT22;21661;50.794;-1.066;2023-03-04T06:18:12;6.50;99.90
35559;DHT22;21661;50.794;-1.066;2023-03-04T06:20:38;6.40;99.90
35559;DHT22;21661;50.794;-1.066;2023-03-04T06:23:04;6.30;99.90
35559;DHT22;21661;50.794;-1.066;2023-03-04T06:25:30;6.30;99.90
35559;DHT22;21661;50.794;-1.066;2023-03-04T06:27:55;6.40;99.90
35559;DHT22;21661;50.794;-1.066;2023-03-04T06:30:21;6.40;99.90
35559;DHT22;21661;50.794;-1.066;2023-03-04T06:32:47;6.40;99.90
35559;DHT22;21661;50.794;-1.066;2023-03-04T06:35:14;6.40;99.90
35559;DHT22;21661;50.794;-1.066;2023-03-04T06:37:40;6.40;99.90
35559;DHT22;21661;50.794;-1.066;2023-03-04T06:40:07;6.30;99.90
35559;DHT22;21661;50.794;-1.066;2023-03-04T06:42:34;6.30;99.90
35559;DHT22;21661;50.794;-1.066;2023-03-04T06:45:00;6.30;99.90
35559;DHT22;21661;50.794;-1.066;2023-03-04T06:47:26;6.40;99.90
35559;DHT22;21661;50.794;-1.066;2023-03-04T06:49:52;6.30;99.90
35559;DHT22;21661;50.794;-1.066;2023-03-04T06:52:17;6.30;99.90
35559;DHT22;21661;50.794;-1.066;2023-03-04T06:54:43;6.30;99.90
35559;DHT22;21661;50.794;-1.066;2023-03-04T06:57:08;6.30;99.90
35559;DHT22;21661;50.794;-1.066;2023-03-04T06:59:34;6.40;99.90
35559;DHT22;21661;50.794;-1.066;2023-03-04T07:02:00;6.30;99.90
35559;DHT22;21661;50.794;-1.066;2023-03-04T07:04:25;6.40;99.90
35559;DHT22;21661;50.794;-1.066;2023-03-04T07:06:51;6.40;99.90
35559;DHT22;21661;50.794;-1.066;2023-03-04T07:09:17;6.40;99.90
35559;DHT22;21661;50.794;-1.066;2023-03-04T07:11:43;6.40;99.90
35559;DHT22;21661;50.794;-1.066;2023-03-04T07:14:09;6.40;99.90
35559;DHT22;21661;50.794;-1.066;2023-03-04T07:16:35;6.40;99.90
35559;DHT22;21661;50.794;-1.066;2023-03-04T07:19:01;6.40;99.90
35559;DHT22;21661;50.794;-1.066;2023-03-04T07:21:26;6.40;99.90
35559;DHT22;21661;50.794;-1.066;2023-03-04T07:23:52;6.40;99.90
35559;DHT22;21661;50.794;-1.066;2023-03-04T07:26:18;6.50;99.90
35559;DHT22;21661;50.794;-1.066;2023-03-04T07:28:44;6.40;99.90
35559;DHT22;21661;50.794;-1.066;2023-03-04T07:31:31;6.50;99.90
35559;DHT22;21661;50.794;-1.066;2023-03-04T07:34:03;6.60;99.90
35559;DHT22;21661;50.794;-1.066;2023-03-04T07:36:29;6.60;99.90
35559;DHT22;21661;50.794;-1.066;2023-03-04T07:38:55;6.60;99.90
35559;DHT22;21661;50.794;-1.066;2023-03-04T07:41:22;6.60;99.90
35559;DHT22;21661;50.794;-1.066;2023-03-04T07:43:49;6.60;99.90
35559;DHT22;21661;50.794;-1.066;2023-03-04T07:46:15;6.60;99.90
35559;DHT22;21661;50.794;-1.066;2023-03-04T07:48:42;6.50;99.90
35559;DHT22;21661;50.794;-1.066;2023-03-04T07:51:14;6.50;99.90
35559;DHT22;21661;50.794;-1.066;2023-03-04T07:53:43;6.60;99.90
35559;DHT22;21661;50.794;-1.066;2023-03-04T07:56:18;6.60;99.90
35559;DHT22;21661;50.794;-1.066;2023-03-04T07:58:44;6.60;99.90
35559;DHT22;21661;50.794;-1.066;2023-03-04T08:01:21;6.70;99.90
35559;DHT22;21661;50.794;-1.066;2023-03-04T08:03:48;6.60;99.90
35559;DHT22;21661;50.794;-1.066;2023-03-04T08:06:15;6.60;99.90
35559;DHT22;21661;50.794;-1.066;2023-03-04T08:08:41;6.60;99.90
35559;DHT22;21661;50.794;-1.066;2023-03-04T08:11:19;6.60;99.90
35559;DHT22;21661;50.794;-1.066;2023-03-04T08:13:45;6.70;99.90
35559;DHT22;21661;50.794;-1.066;2023-03-04T08:16:13;6.70;99.90
35559;DHT22;21661;50.794;-1.066;2023-03-04T08:18:41;6.60;99.90
35559;DHT22;21661;50.794;-1.066;2023-03-04T08:21:11;6.70;99.90
35559;DHT22;21661;50.794;-1.066;2023-03-04T08:23:38;6.60;99.90
35559;DHT22;21661;50.794;-1.066;2023-03-04T08:26:20;6.60;99.90
35559;DHT22;21661;50.794;-1.066;2023-03-04T08:28:46;6.60;99.90
35559;DHT22;21661;50.794;-1.066;2023-03-04T08:31:13;6.60;99.90
35559;DHT22;21661;50.794;-1.066;2023-03-04T08:33:39;6.60;99.90
35559;DHT22;21661;50.794;-1.066;2023-03-04T08:36:05;6.60;99.90
35559;DHT22;21661;50.794;-1.066;2023-03-04T08:38:31;6.70;99.90
35559;DHT22;21661;50.794;-1.066;2023-03-04T08:40:57;6.70;99.90
35559;DHT22;21661;50.794;-1.066;2023-03-04T08:43:24;6.70;99.90
35559;DHT22;21661;50.794;-1.066;2023-03-04T08:45:51;6.60;99.90
35559;DHT22;21661;50.794;-1.066;2023-03-04T08:48:17;6.60;99.90
35559;DHT22;21661;50.794;-1.066;2023-03-04T08:50:44;6.70;99.90
35559;DHT22;21661;50.794;-1.066;2023-03-04T08:53:10;6.70;99.90
35559;DHT22;21661;50.794;-1.066;2023-03-04T08:55:40;6.70;99.90
35559;DHT22;21661;50.794;-1.066;2023-03-04T08:58:06;6.60;99.90
35559;DHT22;21661;50.794;-1.066;2023-03-04T09:00:33;6.60;99.90
35559;DHT22;21661;50.794;-1.066;2023-03-04T09:02:59;6.60;99.90
35559;DHT22;21661;50.794;-1.066;2023-03-04T09:05:24;6.60;99.90
35559;DHT22;21661;50.794;-1.066;2023-03-04T09:07:50;6.60;99.90
35559;DHT22;21661;50.794;-1.066;2023-03-04T09:10:16;6.50;99.90
35559;DHT22;21661;50.794;-1.066;2023-03-04T09:12:41;6.60;99.90
35559;DHT22;21661;50.794;-1.066;2023-03-04T09:15:07;6.60;99.90
35559;DHT22;21661;50.794;-1.066;2023-03-04T09:17:33;6.60;99.90
35559;DHT22;21661;50.794;-1.066;2023-03-04T09:19:59;6.70;99.90
35559;DHT22;21661;50.794;-1.066;2023-03-04T09:22:25;6.70;99.90
35559;DHT22;21661;50.794;-1.066;2023-03-04T09:24:50;6.70;99.90
35559;DHT22;21661;50.794;-1.066;2023-03-04T09:27:16;6.70;99.90
35559;DHT22;21661;50.794;-1.066;2023-03-04T09:29:42;6.70;99.90
35559;DHT22;21661;50.794;-1.066;2023-03-04T09:32:08;6.70;99.90
35559;DHT22;21661;50.794;-1.066;2023-03-04T09:34:34;6.80;99.90
35559;DHT22;21661;50.794;-1.066;2023-03-04T09:37:00;6.80;99.90
35559;DHT22;21661;50.794;-1.066;2023-03-04T09:39:26;6.90;99.90
35559;DHT22;21661;50.794;-1.066;2023-03-04T09:41:54;6.90;99.90
35559;DHT22;21661;50.794;-1.066;2023-03-04T09:47:18;6.90;99.90
35559;DHT22;21661;50.794;-1.066;2023-03-04T09:49:51;7.00;99.90
35559;DHT22;21661;50.794;-1.066;2023-03-04T09:53:06;7.00;99.90
35559;DHT22;21661;50.794;-1.066;2023-03-04T09:58:06;7.30;99.90
35559;DHT22;21661;50.794;-1.066;2023-03-04T10:00:41;7.20;99.90
35559;DHT22;21661;50.794;-1.066;2023-03-04T10:05:57;7.20;99.90
35559;DHT22;21661;50.794;-1.066;2023-03-04T10:08:44;7.30;99.90
35559;DHT22;21661;50.794;-1.066;2023-03-04T10:11:33;7.30;99.90
35559;DHT22;21661;50.794;-1.066;2023-03-04T10:16:53;7.40;99.90
35559;DHT22;21661;50.794;-1.066;2023-03-04T10:19:29;7.50;99.90
35559;DHT22;21661;50.794;-1.066;2023-03-04T10:21:56;7.60;99.90
35559;DHT22;21661;50.794;-1.066;2023-03-04T10:24:26;7.60;99.90
35559;DHT22;21661;50.794;-1.066;2023-03-04T10:27:04;7.70;99.90
35559;DHT22;21661;50.794;-1.066;2023-03-04T10:29:32;7.70;99.90
35559;DHT22;21661;50.794;-1.066;2023-03-04T10:31:58;7.80;99.90
35559;DHT22;21661;50.794;-1.066;2023-03-04T10:34:24;7.70;99.90
35559;DHT22;21661;50.794;-1.066;2023-03-04T10:36:57;7.70;99.90
35559;DHT22;21661;50.794;-1.066;2023-03-04T10:39:30;7.60;99.90
35559;DHT22;21661;50.794;-1.066;2023-03-04T10:42:01;7.50;99.90
35559;DHT22;21661;50.794;-1.066;2023-03-04T10:44:28;7.50;99.90
35559;DHT22;21661;50.794;-1.066;2023-03-04T10:46:56;7.50;99.90
35559;DHT22;21661;50.794;-1.066;2023-03-04T10:49:22;7.60;99.90
35559;DHT22;21661;50.794;-1.066;2023-03-04T10:51:59;7.60;99.90
35559;DHT22;21661;50.794;-1.066;2023-03-04T10:54:46;7.70;99.90
35559;DHT22;21661;50.794;-1.066;2023-03-04T11:02:21;7.60;99.90
35559;DHT22;21661;50.794;-1.066;2023-03-04T11:04:53;7.70;99.90
35559;DHT22;21661;50.794;-1.066;2023-03-04T11:07:21;7.70;99.90
35559;DHT22;21661;50.794;-1.066;2023-03-04T11:09:46;7.80;99.90
35559;DHT22;21661;50.794;-1.066;2023-03-04T11:12:14;7.80;99.90
35559;DHT22;21661;50.794;-1.066;2023-03-04T11:14:50;7.70;99.90
35559;DHT22;21661;50.794;-1.066;2023-03-04T11:17:28;7.80;99.90
35559;DHT22;21661;50.794;-1.066;2023-03-04T11:20:04;7.90;99.90
35559;DHT22;21661;50.794;-1.066;2023-03-04T11:22:34;7.80;99.90
35559;DHT22;21661;50.794;-1.066;2023-03-04T11:25:24;7.90;99.90
35559;DHT22;21661;50.794;-1.066;2023-03-04T11:27:57;8.00;99.90
35559;DHT22;21661;50.794;-1.066;2023-03-04T11:30:34;8.00;99.90
35559;DHT22;21661;50.794;-1.066;2023-03-04T11:33:12;8.00;99.90
35559;DHT22;21661;50.794;-1.066;2023-03-04T11:35:51;8.20;99.90
35559;DHT22;21661;50.794;-1.066;2023-03-04T11:38:26;8.20;99.90
35559;DHT22;21661;50.794;-1.066;2023-03-04T11:41:38;8.20;99.90
35559;DHT22;21661;50.794;-1.066;2023-03-04T11:44:07;8.20;99.90
35559;DHT22;21661;50.794;-1.066;2023-03-04T11:46:58;8.20;99.90
35559;DHT22;21661;50.794;-1.066;2023-03-04T12:00:51;7.90;99.90
35559;DHT22;21661;50.794;-1.066;2023-03-04T12:09:30;8.10;99.90
35559;DHT22;21661;50.794;-1.066;2023-03-04T12:12:19;8.00;99.90
35559;DHT22;21661;50.794;-1.066;2023-03-04T12:15:01;8.00;99.90
35559;DHT22;21661;50.794;-1.066;2023-03-04T12:22:44;8.20;99.90
35559;DHT22;21661;50.794;-1.066;2023-03-04T12:25:23;8.20;99.90
35559;DHT22;21661;50.794;-1.066;2023-03-04T12:31:09;8.20;99.90
35559;DHT22;21661;50.794;-1.066;2023-03-04T12:56:05;8.40;99.90
35559;DHT22;21661;50.794;-1.066;2023-03-04T12:58:32;8.30;99.90
35559;DHT22;21661;50.794;-1.066;2023-03-04T13:01:14;8.30;99.90
35559;DHT22;21661;50.794;-1.066;2023-03-04T13:06:38;8.30;99.90
35559;DHT22;21661;50.794;-1.066;2023-03-04T13:11:42;8.40;99.90
35559;DHT22;21661;50.794;-1.066;2023-03-04T13:16:48;8.50;99.90
35559;DHT22;21661;50.794;-1.066;2023-03-04T13:23:27;8.50;99.90
35559;DHT22;21661;50.794;-1.066;2023-03-04T13:25:37;8.40;99.90
35559;DHT22;21661;50.794;-1.066;2023-03-04T13:41:21;8.30;99.90
35559;DHT22;21661;50.794;-1.066;2023-03-04T13:43:49;8.30;99.90
35559;DHT22;21661;50.794;-1.066;2023-03-04T13:56:24;8.40;99.90
35559;DHT22;21661;50.794;-1.066;2023-03-04T14:01:51;8.40;99.90
35559;DHT22;21661;50.794;-1.066;2023-03-04T14:04:29;8.40;99.90
35559;DHT22;21661;50.794;-1.066;2023-03-04T14:06:57;8.40;99.90
35559;DHT22;21661;50.794;-1.066;2023-03-04T14:09:28;8.40;99.90
35559;DHT22;21661;50.794;-1.066;2023-03-04T14:12:00;8.40;99.90
35559;DHT22;21661;50.794;-1.066;2023-03-04T14:14:49;8.30;99.90
35559;DHT22;21661;50.794;-1.066;2023-03-04T14:17:19;8.30;99.90
35559;DHT22;21661;50.794;-1.066;2023-03-04T14:19:46;8.30;99.90
35559;DHT22;21661;50.794;-1.066;2023-03-04T14:22:29;8.30;99.90
35559;DHT22;21661;50.794;-1.066;2023-03-04T14:25:03;8.40;99.90
35559;DHT22;21661;50.794;-1.066;2023-03-04T14:27:31;8.40;99.90
35559;DHT22;21661;50.794;-1.066;2023-03-04T14:30:06;8.50;99.90
35559;DHT22;21661;50.794;-1.066;2023-03-04T14:32:32;8.40;99.90
35559;DHT22;21661;50.794;-1.066;2023-03-04T14:35:03;8.50;99.90
35559;DHT22;21661;50.794;-1.066;2023-03-04T14:37:41;8.50;99.90
35559;DHT22;21661;50.794;-1.066;2023-03-04T14:40:17;8.50;99.90
35559;DHT22;21661;50.794;-1.066;2023-03-04T14:42:44;8.50;99.90
35559;DHT22;21661;50.794;-1.066;2023-03-04T14:45:13;8.50;99.90
35559;DHT22;21661;50.794;-1.066;2023-03-04T14:47:42;8.60;99.90
35559;DHT22;21661;50.794;-1.066;2023-03-04T14:50:15;8.50;99.90
35559;DHT22;21661;50.794;-1.066;2023-03-04T14:52:42;8.60;99.90
35559;DHT22;21661;50.794;-1.066;2023-03-04T14:55:21;8.50;99.90
35559;DHT22;21661;50.794;-1.066;2023-03-04T14:57:49;8.50;99.90
35559;DHT22;21661;50.794;-1.066;2023-03-04T15:00:29;8.40;99.90
35559;DHT22;21661;50.794;-1.066;2023-03-04T15:02:59;8.50;99.90
35559;DHT22;21661;50.794;-1.066;2023-03-04T15:05:29;8.40;99.90
35559;DHT22;21661;50.794;-1.066;2023-03-04T15:08:15;8.40;99.90
35559;DHT22;21661;50.794;-1.066;2023-03-04T15:10:53;8.30;99.90
35559;DHT22;21661;50.794;-1.066;2023-03-04T15:13:42;8.20;99.90
35559;DHT22;21661;50.794;-1.066;2023-03-04T15:16:10;8.20;99.90
35559;DHT22;21661;50.794;-1.066;2023-03-04T15:18:36;8.20;99.90
35559;DHT22;21661;50.794;-1.066;2023-03-04T15:23:50;8.20;99.90
35559;DHT22;21661;50.794;-1.066;2023-03-04T15:26:16;8.10;99.90
35559;DHT22;21661;50.794;-1.066;2023-03-04T15:28:42;8.10;99.90
35559;DHT22;21661;50.794;-1.066;2023-03-04T15:31:16;8.10;99.90
35559;DHT22;21661;50.794;-1.066;2023-03-04T15:33:42;8.20;99.90
35559;DHT22;21661;50.794;-1.066;2023-03-04T15:36:13;8.20;99.90
35559;DHT22;21661;50.794;-1.066;2023-03-04T15:38:40;8.20;99.90
35559;DHT22;21661;50.794;-1.066;2023-03-04T15:41:09;8.20;99.90
35559;DHT22;21661;50.794;-1.066;2023-03-04T15:43:35;8.20;99.90
35559;DHT22;21661;50.794;-1.066;2023-03-04T15:46:01;8.10;99.90
35559;DHT22;21661;50.794;-1.066;2023-03-04T15:48:27;8.10;99.90
35559;DHT22;21661;50.794;-1.066;2023-03-04T15:51:01;8.00;99.90
35559;DHT22;21661;50.794;-1.066;2023-03-04T15:53:36;8.00;99.90
35559;DHT22;21661;50.794;-1.066;2023-03-04T15:56:07;8.00;99.90
35559;DHT22;21661;50.794;-1.066;2023-03-04T15:58:34;8.00;99.90
35559;DHT22;21661;50.794;-1.066;2023-03-04T16:01:00;7.90;99.90
35559;DHT22;21661;50.794;-1.066;2023-03-04T16:03:25;7.90;99.90
35559;DHT22;21661;50.794;-1.066;2023-03-04T16:05:51;7.90;99.90
35559;DHT22;21661;50.794;-1.066;2023-03-04T16:08:21;8.00;99.90
35559;DHT22;21661;50.794;-1.066;2023-03-04T16:10:49;8.00;99.90
35559;DHT22;21661;50.794;-1.066;2023-03-04T16:13:20;8.00;99.90
35559;DHT22;21661;50.794;-1.066;2023-03-04T16:15:47;8.00;99.90
35559;DHT22;21661;50.794;-1.066;2023-03-04T16:18:14;8.10;99.90
35559;DHT22;21661;50.794;-1.066;2023-03-04T16:20:43;8.10;99.90
35559;DHT22;21661;50.794;-1.066;2023-03-04T16:23:17;8.10;99.90
35559;DHT22;21661;50.794;-1.066;2023-03-04T16:25:45;8.10;99.90
35559;DHT22;21661;50.794;-1.066;2023-03-04T16:28:11;8.10;99.90
35559;DHT22;21661;50.794;-1.066;2023-03-04T16:30:38;8.00;99.90
35559;DHT22;21661;50.794;-1.066;2023-03-04T16:33:03;8.00;99.90
35559;DHT22;21661;50.794;-1.066;2023-03-04T16:35:31;7.90;99.90
35559;DHT22;21661;50.794;-1.066;2023-03-04T16:37:58;7.90;99.90
35559;DHT22;21661;50.794;-1.066;2023-03-04T16:40:27;7.80;99.90
35559;DHT22;21661;50.794;-1.066;2023-03-04T16:42:53;7.80;99.90
35559;DHT22;21661;50.794;-1.066;2023-03-04T16:45:25;7.80;99.90
35559;DHT22;21661;50.794;-1.066;2023-03-04T16:47:51;7.70;99.90
35559;DHT22;21661;50.794;-1.066;2023-03-04T16:50:19;7.80;99.90
35559;DHT22;21661;50.794;-1.066;2023-03-04T16:52:48;7.80;99.90
35559;DHT22;21661;50.794;-1.066;2023-03-04T16:55:17;7.80;99.90
35559;DHT22;21661;50.794;-1.066;2023-03-04T16:57:44;7.90;99.90
35559;DHT22;21661;50.794;-1.066;2023-03-04T17:00:10;8.00;99.90
35559;DHT22;21661;50.794;-1.066;2023-03-04T17:02:36;8.00;99.90
35559;DHT22;21661;50.794;-1.066;2023-03-04T17:05:02;7.90;99.90
35559;DHT22;21661;50.794;-1.066;2023-03-04T17:07:28;7.90;99.90
35559;DHT22;21661;50.794;-1.066;2023-03-04T17:09:54;7.80;99.90
35559;DHT22;21661;50.794;-1.066;2023-03-04T17:12:19;7.80;99.90
35559;DHT22;21661;50.794;-1.066;2023-03-04T17:14:45;7.80;99.90
35559;DHT22;21661;50.794;-1.066;2023-03-04T17:17:11;7.80;99.90
35559;DHT22;21661;50.794;-1.066;2023-03-04T17:19:37;7.80;99.90
35559;DHT22;21661;50.794;-1.066;2023-03-04T17:22:02;7.70;99.90
35559;DHT22;21661;50.794;-1.066;2023-03-04T17:24:28;7.70;99.90